sensor_id;sensor_type;location;lat;lon;timestamp;P1;durP1;ratioP1;P2;durP2;ratioP2
67896;SDS011;54698;48.428;9.964;2022-08-24T00:01:56;10.38;;;6.13;;
67896;SDS011;54698;48.428;9.964;2022-08-24T00:04:24;9.10;;;5.88;;
67896;SDS011;54698;48.428;9.964;2022-08-24T00:06:49;11.63;;;6.13;;
67896;SDS011;54698;48.428;9.964;2022-08-24T00:09:15;13.98;;;6.03;;
67896;SDS011;54698;48.428;9.964;2022-08-24T00:11:41;9.32;;;6.88;;
67896;SDS011;54698;48.428;9.964;2022-08-24T00:14:07;9.43;;;6.15;;
67896;SDS011;54698;48.428;9.964;2022-08-24T00:16:33;9.40;;;6.45;;
67896;SDS011;54698;48.428;9.964;2022-08-24T00:18:59;13.32;;;6.93;;
67896;SDS011;54698;48.428;9.964;2022-08-24T00:21:26;10.07;;;6.53;;
67896;SDS011;54698;48.428;9.964;2022-08-24T00:23:52;9.82;;;6.63;;
67896;SDS011;54698;48.428;9.964;2022-08-24T00:26:18;10.38;;;7.50;;
67896;SDS011;54698;48.428;9.964;2022-08-24T00:28:44;14.07;;;6.47;;
67896;SDS011;54698;48.428;9.964;2022-08-24T00:31:10;10.05;;;6.45;;
67896;SDS011;54698;48.428;9.964;2022-08-24T00:33:36;9.75;;;7.30;;
67896;SDS011;54698;48.428;9.964;2022-08-24T00:36:03;9.68;;;6.45;;
67896;SDS011;54698;48.428;9.964;2022-08-24T00:38:31;9.90;;;6.47;;
67896;SDS011;54698;48.428;9.964;2022-08-24T00:40:57;10.57;;;6.88;;
67896;SDS011;54698;48.428;9.964;2022-08-24T00:43:23;12.10;;;6.43;;
67896;SDS011;54698;48.428;9.964;2022-08-24T00:45:51;14.27;;;6.13;;
67896;SDS011;54698;48.428;9.964;2022-08-24T00:48:31;9.55;;;5.72;;
67896;SDS011;54698;48.428;9.964;2022-08-24T00:51:03;11.20;;;5.60;;
67896;SDS011;54698;48.428;9.964;2022-08-24T00:53:35;9.30;;;6.38;;
67896;SDS011;54698;48.428;9.964;2022-08-24T00:56:06;10.88;;;5.93;;
67896;SDS011;54698;48.428;9.964;2022-08-24T00:58:40;8.70;;;5.60;;
67896;SDS011;54698;48.428;9.964;2022-08-24T01:01:09;14.38;;;7.80;;
67896;SDS011;54698;48.428;9.964;2022-08-24T01:03:36;11.50;;;7.07;;
67896;SDS011;54698;48.428;9.964;2022-08-24T01:06:02;9.57;;;6.15;;
67896;SDS011;54698;48.428;9.964;2022-08-24T01:08:29;10.40;;;7.18;;
67896;SDS011;54698;48.428;9.964;2022-08-24T01:10:57;18.73;;;7.07;;
67896;SDS011;54698;48.428;9.964;2022-08-24T01:13:26;10.43;;;5.75;;
67896;SDS011;54698;48.428;9.964;2022-08-24T01:15:53;9.15;;;5.40;;
67896;SDS011;54698;48.428;9.964;2022-08-24T01:18:24;8.57;;;4.47;;
67896;SDS011;54698;48.428;9.964;2022-08-24T01:20:54;6.93;;;4.40;;
67896;SDS011;54698;48.428;9.964;2022-08-24T01:23:33;11.18;;;4.68;;
67896;SDS011;54698;48.428;9.964;2022-08-24T01:26:03;5.35;;;3.30;;
67896;SDS011;54698;48.428;9.964;2022-08-24T01:28:30;6.55;;;4.03;;
67896;SDS011;54698;48.428;9.964;2022-08-24T01:30:56;5.93;;;3.40;;
67896;SDS011;54698;48.428;9.964;2022-08-24T01:33:23;5.78;;;3.30;;
67896;SDS011;54698;48.428;9.964;2022-08-24T01:35:54;6.15;;;3.58;;
67896;SDS011;54698;48.428;9.964;2022-08-24T01:38:25;6.15;;;3.55;;
67896;SDS011;54698;48.428;9.964;2022-08-24T01:40:53;6.45;;;3.33;;
67896;SDS011;54698;48.428;9.964;2022-08-24T01:43:25;10.68;;;3.60;;
67896;SDS011;54698;48.428;9.964;2022-08-24T01:45:51;7.47;;;3.67;;
67896;SDS011;54698;48.428;9.964;2022-08-24T01:48:17;7.68;;;4.50;;
67896;SDS011;54698;48.428;9.964;2022-08-24T01:50:42;8.45;;;4.97;;
67896;SDS011;54698;48.428;9.964;2022-08-24T01:53:08;9.50;;;5.53;;
67896;SDS011;54698;48.428;9.964;2022-08-24T01:55:35;10.82;;;5.07;;
67896;SDS011;54698;48.428;9.964;2022-08-24T01:58:02;8.35;;;5.05;;
67896;SDS011;54698;48.428;9.964;2022-08-24T02:00:29;10.57;;;5.70;;
67896;SDS011;54698;48.428;9.964;2022-08-24T02:02:56;8.52;;;6.05;;
67896;SDS011;54698;48.428;9.964;2022-08-24T02:05:22;9.98;;;5.30;;
67896;SDS011;54698;48.428;9.964;2022-08-24T02:07:48;8.88;;;6.07;;
67896;SDS011;54698;48.428;9.964;2022-08-24T02:10:14;11.32;;;5.80;;
67896;SDS011;54698;48.428;9.964;2022-08-24T02:12:41;10.60;;;6.63;;
67896;SDS011;54698;48.428;9.964;2022-08-24T02:15:12;10.68;;;6.95;;
67896;SDS011;54698;48.428;9.964;2022-08-24T02:17:37;10.20;;;6.82;;
67896;SDS011;54698;48.428;9.964;2022-08-24T02:20:04;8.90;;;6.10;;
67896;SDS011;54698;48.428;9.964;2022-08-24T02:22:31;9.82;;;6.50;;
67896;SDS011;54698;48.428;9.964;2022-08-24T02:24:57;12.02;;;5.75;;
67896;SDS011;54698;48.428;9.964;2022-08-24T02:27:23;8.57;;;5.45;;
67896;SDS011;54698;48.428;9.964;2022-08-24T02:29:49;10.50;;;7.93;;
67896;SDS011;54698;48.428;9.964;2022-08-24T02:32:16;8.60;;;6.20;;
67896;SDS011;54698;48.428;9.964;2022-08-24T02:34:42;10.38;;;7.10;;
67896;SDS011;54698;48.428;9.964;2022-08-24T02:37:07;8.57;;;6.38;;
67896;SDS011;54698;48.428;9.964;2022-08-24T02:39:33;10.57;;;6.63;;
67896;SDS011;54698;48.428;9.964;2022-08-24T02:41:59;11.40;;;6.88;;
67896;SDS011;54698;48.428;9.964;2022-08-24T02:44:25;10.98;;;6.45;;
67896;SDS011;54698;48.428;9.964;2022-08-24T02:46:51;13.80;;;7.40;;
67896;SDS011;54698;48.428;9.964;2022-08-24T02:49:18;14.02;;;8.07;;
67896;SDS011;54698;48.428;9.964;2022-08-24T02:51:44;10.35;;;6.65;;
67896;SDS011;54698;48.428;9.964;2022-08-24T02:54:11;11.10;;;6.28;;
67896;SDS011;54698;48.428;9.964;2022-08-24T02:56:39;10.70;;;6.63;;
67896;SDS011;54698;48.428;9.964;2022-08-24T02:59:04;11.02;;;6.40;;
67896;SDS011;54698;48.428;9.964;2022-08-24T03:01:30;9.70;;;6.18;;
67896;SDS011;54698;48.428;9.964;2022-08-24T03:03:56;11.27;;;5.85;;
67896;SDS011;54698;48.428;9.964;2022-08-24T03:06:23;9.40;;;4.78;;
67896;SDS011;54698;48.428;9.964;2022-08-24T03:08:49;7.68;;;5.03;;
67896;SDS011;54698;48.428;9.964;2022-08-24T03:11:15;9.85;;;5.47;;
67896;SDS011;54698;48.428;9.964;2022-08-24T03:13:41;10.27;;;5.18;;
67896;SDS011;54698;48.428;9.964;2022-08-24T03:16:07;7.43;;;4.63;;
67896;SDS011;54698;48.428;9.964;2022-08-24T03:18:33;9.90;;;5.35;;
67896;SDS011;54698;48.428;9.964;2022-08-24T03:20:59;7.82;;;5.40;;
67896;SDS011;54698;48.428;9.964;2022-08-24T03:23:27;13.73;;;5.25;;
67896;SDS011;54698;48.428;9.964;2022-08-24T03:25:53;8.13;;;5.43;;
67896;SDS011;54698;48.428;9.964;2022-08-24T03:28:20;8.40;;;4.20;;
67896;SDS011;54698;48.428;9.964;2022-08-24T03:30:47;8.75;;;4.20;;
67896;SDS011;54698;48.428;9.964;2022-08-24T03:33:14;10.50;;;5.10;;
67896;SDS011;54698;48.428;9.964;2022-08-24T03:35:41;7.43;;;4.47;;
67896;SDS011;54698;48.428;9.964;2022-08-24T03:38:06;9.63;;;4.68;;
67896;SDS011;54698;48.428;9.964;2022-08-24T03:40:34;10.40;;;5.25;;
67896;SDS011;54698;48.428;9.964;2022-08-24T03:43:00;9.35;;;5.25;;
67896;SDS011;54698;48.428;9.964;2022-08-24T03:45:26;12.50;;;5.40;;
67896;SDS011;54698;48.428;9.964;2022-08-24T03:47:53;8.20;;;4.50;;
67896;SDS011;54698;48.428;9.964;2022-08-24T03:50:19;11.27;;;5.60;;
67896;SDS011;54698;48.428;9.964;2022-08-24T03:52:46;9.35;;;5.40;;
67896;SDS011;54698;48.428;9.964;2022-08-24T03:55:13;9.18;;;5.78;;
67896;SDS011;54698;48.428;9.964;2022-08-24T03:57:41;10.27;;;5.80;;
67896;SDS011;54698;48.428;9.964;2022-08-24T04:00:07;8.77;;;4.70;;
67896;SDS011;54698;48.428;9.964;2022-08-24T04:02:35;7.85;;;5.28;;
67896;SDS011;54698;48.428;9.964;2022-08-24T04:05:02;8.90;;;5.03;;
67896;SDS011;54698;48.428;9.964;2022-08-24T04:07:28;7.20;;;4.90;;
67896;SDS011;54698;48.428;9.964;2022-08-24T04:09:54;8.75;;;5.03;;
67896;SDS011;54698;48.428;9.964;2022-08-24T04:12:20;8.25;;;5.10;;
67896;SDS011;54698;48.428;9.964;2022-08-24T04:14:49;9.00;;;4.88;;
67896;SDS011;54698;48.428;9.964;2022-08-24T04:17:15;7.88;;;4.95;;
67896;SDS011;54698;48.428;9.964;2022-08-24T04:19:41;8.45;;;4.15;;
67896;SDS011;54698;48.428;9.964;2022-08-24T04:22:07;7.93;;;4.47;;
67896;SDS011;54698;48.428;9.964;2022-08-24T04:24:33;8.00;;;4.63;;
67896;SDS011;54698;48.428;9.964;2022-08-24T04:26:59;10.02;;;4.28;;
67896;SDS011;54698;48.428;9.964;2022-08-24T04:29:24;9.20;;;5.00;;
67896;SDS011;54698;48.428;9.964;2022-08-24T04:31:51;8.35;;;5.43;;
67896;SDS011;54698;48.428;9.964;2022-08-24T04:34:17;8.27;;;4.05;;
67896;SDS011;54698;48.428;9.964;2022-08-24T04:36:43;8.13;;;4.30;;
67896;SDS011;54698;48.428;9.964;2022-08-24T04:39:09;7.47;;;5.10;;
67896;SDS011;54698;48.428;9.964;2022-08-24T04:41:36;11.00;;;4.95;;
67896;SDS011;54698;48.428;9.964;2022-08-24T04:44:02;9.48;;;4.50;;
67896;SDS011;54698;48.428;9.964;2022-08-24T04:46:28;10.65;;;4.38;;
67896;SDS011;54698;48.428;9.964;2022-08-24T04:48:56;8.38;;;4.38;;
67896;SDS011;54698;48.428;9.964;2022-08-24T04:51:22;7.07;;;3.90;;
67896;SDS011;54698;48.428;9.964;2022-08-24T04:53:48;8.57;;;4.72;;
67896;SDS011;54698;48.428;9.964;2022-08-24T04:56:16;7.72;;;4.55;;
67896;SDS011;54698;48.428;9.964;2022-08-24T04:58:46;9.25;;;4.72;;
67896;SDS011;54698;48.428;9.964;2022-08-24T05:01:13;8.15;;;5.10;;
67896;SDS011;54698;48.428;9.964;2022-08-24T05:03:42;7.68;;;4.10;;
67896;SDS011;54698;48.428;9.964;2022-08-24T05:06:10;8.25;;;3.75;;
67896;SDS011;54698;48.428;9.964;2022-08-24T05:08:37;7.53;;;3.90;;
67896;SDS011;54698;48.428;9.964;2022-08-24T05:11:03;6.90;;;3.65;;
67896;SDS011;54698;48.428;9.964;2022-08-24T05:13:29;6.93;;;3.72;;
67896;SDS011;54698;48.428;9.964;2022-08-24T05:15:55;8.40;;;4.25;;
67896;SDS011;54698;48.428;9.964;2022-08-24T05:18:20;7.72;;;4.50;;
67896;SDS011;54698;48.428;9.964;2022-08-24T05:20:46;10.00;;;4.85;;
67896;SDS011;54698;48.428;9.964;2022-08-24T05:23:13;9.35;;;5.00;;
67896;SDS011;54698;48.428;9.964;2022-08-24T05:25:39;8.57;;;5.13;;
67896;SDS011;54698;48.428;9.964;2022-08-24T05:28:06;9.32;;;4.93;;
67896;SDS011;54698;48.428;9.964;2022-08-24T05:30:32;6.47;;;3.22;;
67896;SDS011;54698;48.428;9.964;2022-08-24T05:32:58;7.90;;;4.07;;
67896;SDS011;54698;48.428;9.964;2022-08-24T05:35:24;8.90;;;4.32;;
67896;SDS011;54698;48.428;9.964;2022-08-24T05:37:50;8.52;;;3.58;;
67896;SDS011;54698;48.428;9.964;2022-08-24T05:40:17;8.50;;;4.18;;
67896;SDS011;54698;48.428;9.964;2022-08-24T05:42:45;10.93;;;4.00;;
67896;SDS011;54698;48.428;9.964;2022-08-24T05:45:11;10.52;;;4.85;;
67896;SDS011;54698;48.428;9.964;2022-08-24T05:47:37;8.38;;;4.85;;
67896;SDS011;54698;48.428;9.964;2022-08-24T05:50:03;8.45;;;4.72;;
67896;SDS011;54698;48.428;9.964;2022-08-24T05:52:31;8.95;;;4.68;;
67896;SDS011;54698;48.428;9.964;2022-08-24T05:54:58;8.82;;;5.45;;
67896;SDS011;54698;48.428;9.964;2022-08-24T05:57:29;10.70;;;4.95;;
67896;SDS011;54698;48.428;9.964;2022-08-24T05:59:57;10.65;;;4.70;;
67896;SDS011;54698;48.428;9.964;2022-08-24T06:02:23;10.20;;;4.53;;
67896;SDS011;54698;48.428;9.964;2022-08-24T06:04:48;7.00;;;4.47;;
67896;SDS011;54698;48.428;9.964;2022-08-24T06:07:14;6.70;;;3.58;;
67896;SDS011;54698;48.428;9.964;2022-08-24T06:09:41;10.45;;;4.63;;
67896;SDS011;54698;48.428;9.964;2022-08-24T06:12:07;9.48;;;5.80;;
67896;SDS011;54698;48.428;9.964;2022-08-24T06:14:35;8.65;;;5.07;;
67896;SDS011;54698;48.428;9.964;2022-08-24T06:17:02;9.32;;;5.47;;
67896;SDS011;54698;48.428;9.964;2022-08-24T06:19:30;8.45;;;5.15;;
67896;SDS011;54698;48.428;9.964;2022-08-24T06:21:56;9.85;;;5.68;;
67896;SDS011;54698;48.428;9.964;2022-08-24T06:24:22;9.88;;;5.35;;
67896;SDS011;54698;48.428;9.964;2022-08-24T06:26:49;9.85;;;5.55;;
67896;SDS011;54698;48.428;9.964;2022-08-24T06:29:15;11.80;;;5.90;;
67896;SDS011;54698;48.428;9.964;2022-08-24T06:31:43;10.88;;;5.40;;
67896;SDS011;54698;48.428;9.964;2022-08-24T06:34:11;9.10;;;5.68;;
67896;SDS011;54698;48.428;9.964;2022-08-24T06:36:39;9.52;;;5.90;;
67896;SDS011;54698;48.428;9.964;2022-08-24T06:39:05;9.93;;;5.68;;
67896;SDS011;54698;48.428;9.964;2022-08-24T06:41:31;8.35;;;5.00;;
67896;SDS011;54698;48.428;9.964;2022-08-24T06:43:57;9.70;;;5.53;;
67896;SDS011;54698;48.428;9.964;2022-08-24T06:46:23;8.65;;;4.82;;
67896;SDS011;54698;48.428;9.964;2022-08-24T06:48:50;10.23;;;5.43;;
67896;SDS011;54698;48.428;9.964;2022-08-24T06:51:17;11.05;;;5.60;;
67896;SDS011;54698;48.428;9.964;2022-08-24T06:53:45;9.13;;;5.93;;
67896;SDS011;54698;48.428;9.964;2022-08-24T06:56:11;9.40;;;5.95;;
67896;SDS011;54698;48.428;9.964;2022-08-24T06:58:37;8.30;;;4.82;;
67896;SDS011;54698;48.428;9.964;2022-08-24T07:01:07;9.68;;;5.20;;
67896;SDS011;54698;48.428;9.964;2022-08-24T07:03:34;8.80;;;5.10;;
67896;SDS011;54698;48.428;9.964;2022-08-24T07:06:02;9.65;;;5.82;;
67896;SDS011;54698;48.428;9.964;2022-08-24T07:08:29;10.55;;;4.93;;
67896;SDS011;54698;48.428;9.964;2022-08-24T07:10:55;7.75;;;4.60;;
67896;SDS011;54698;48.428;9.964;2022-08-24T07:13:21;9.43;;;4.53;;
67896;SDS011;54698;48.428;9.964;2022-08-24T07:15:46;10.85;;;5.47;;
67896;SDS011;54698;48.428;9.964;2022-08-24T07:18:16;7.53;;;4.88;;
67896;SDS011;54698;48.428;9.964;2022-08-24T07:20:44;10.55;;;5.72;;
67896;SDS011;54698;48.428;9.964;2022-08-24T07:23:12;8.55;;;5.18;;
67896;SDS011;54698;48.428;9.964;2022-08-24T07:25:38;8.35;;;4.72;;
67896;SDS011;54698;48.428;9.964;2022-08-24T07:28:04;9.25;;;4.45;;
67896;SDS011;54698;48.428;9.964;2022-08-24T07:30:30;9.95;;;5.00;;
67896;SDS011;54698;48.428;9.964;2022-08-24T07:32:56;9.77;;;5.53;;
67896;SDS011;54698;48.428;9.964;2022-08-24T07:35:23;10.05;;;5.40;;
67896;SDS011;54698;48.428;9.964;2022-08-24T07:37:49;12.52;;;4.97;;
67896;SDS011;54698;48.428;9.964;2022-08-24T07:40:16;9.48;;;5.20;;
67896;SDS011;54698;48.428;9.964;2022-08-24T07:42:45;7.93;;;4.82;;
67896;SDS011;54698;48.428;9.964;2022-08-24T07:45:11;9.10;;;5.93;;
67896;SDS011;54698;48.428;9.964;2022-08-24T07:47:37;8.35;;;5.25;;
67896;SDS011;54698;48.428;9.964;2022-08-24T07:50:03;10.88;;;5.43;;
67896;SDS011;54698;48.428;9.964;2022-08-24T07:52:30;11.05;;;5.43;;
67896;SDS011;54698;48.428;9.964;2022-08-24T07:54:56;8.40;;;4.85;;
67896;SDS011;54698;48.428;9.964;2022-08-24T07:57:23;9.57;;;5.35;;
67896;SDS011;54698;48.428;9.964;2022-08-24T07:59:49;10.70;;;6.03;;
67896;SDS011;54698;48.428;9.964;2022-08-24T08:02:15;8.20;;;5.25;;
67896;SDS011;54698;48.428;9.964;2022-08-24T08:04:41;8.63;;;5.07;;
67896;SDS011;54698;48.428;9.964;2022-08-24T08:07:07;9.02;;;5.53;;
67896;SDS011;54698;48.428;9.964;2022-08-24T08:09:35;7.88;;;5.38;;
67896;SDS011;54698;48.428;9.964;2022-08-24T08:12:02;9.50;;;5.32;;
67896;SDS011;54698;48.428;9.964;2022-08-24T08:14:29;9.32;;;5.85;;
67896;SDS011;54698;48.428;9.964;2022-08-24T08:16:55;10.25;;;7.15;;
67896;SDS011;54698;48.428;9.964;2022-08-24T08:19:21;9.07;;;5.53;;
67896;SDS011;54698;48.428;9.964;2022-08-24T08:21:48;8.00;;;4.82;;
67896;SDS011;54698;48.428;9.964;2022-08-24T08:24:16;10.50;;;5.10;;
67896;SDS011;54698;48.428;9.964;2022-08-24T08:26:42;10.93;;;5.20;;
67896;SDS011;54698;48.428;9.964;2022-08-24T08:29:10;9.45;;;4.57;;
67896;SDS011;54698;48.428;9.964;2022-08-24T08:31:38;8.05;;;5.03;;
67896;SDS011;54698;48.428;9.964;2022-08-24T08:34:05;8.82;;;5.40;;
67896;SDS011;54698;48.428;9.964;2022-08-24T08:36:31;8.60;;;4.68;;
67896;SDS011;54698;48.428;9.964;2022-08-24T08:38:58;7.93;;;3.90;;
67896;SDS011;54698;48.428;9.964;2022-08-24T08:41:41;7.28;;;4.43;;
67896;SDS011;54698;48.428;9.964;2022-08-24T08:44:59;9.80;;;4.75;;
67896;SDS011;54698;48.428;9.964;2022-08-24T08:48:03;8.57;;;4.43;;
67896;SDS011;54698;48.428;9.964;2022-08-24T08:51:02;8.07;;;4.50;;
67896;SDS011;54698;48.428;9.964;2022-08-24T08:54:03;7.28;;;4.70;;
67896;SDS011;54698;48.428;9.964;2022-08-24T08:56:55;7.32;;;4.18;;
67896;SDS011;54698;48.428;9.964;2022-08-24T09:00:05;11.35;;;5.07;;
67896;SDS011;54698;48.428;9.964;2022-08-24T09:02:50;7.28;;;4.22;;
67896;SDS011;54698;48.428;9.964;2022-08-24T09:05:55;8.23;;;3.75;;
67896;SDS011;54698;48.428;9.964;2022-08-24T09:11:59;7.80;;;4.07;;
67896;SDS011;54698;48.428;9.964;2022-08-24T09:14:44;8.07;;;3.80;;
67896;SDS011;54698;48.428;9.964;2022-08-24T09:17:41;9.25;;;3.60;;
67896;SDS011;54698;48.428;9.964;2022-08-24T09:20:24;6.45;;;2.97;;
67896;SDS011;54698;48.428;9.964;2022-08-24T09:23:12;6.97;;;3.08;;
67896;SDS011;54698;48.428;9.964;2022-08-24T09:25:50;6.10;;;3.33;;
67896;SDS011;54698;48.428;9.964;2022-08-24T09:28:33;7.45;;;3.70;;
67896;SDS011;54698;48.428;9.964;2022-08-24T09:31:13;9.45;;;4.88;;
67896;SDS011;54698;48.428;9.964;2022-08-24T09:34:15;7.13;;;4.30;;
67896;SDS011;54698;48.428;9.964;2022-08-24T09:36:53;7.10;;;4.30;;
67896;SDS011;54698;48.428;9.964;2022-08-24T09:39:36;6.82;;;3.38;;
67896;SDS011;54698;48.428;9.964;2022-08-24T09:42:26;6.57;;;3.78;;
67896;SDS011;54698;48.428;9.964;2022-08-24T09:45:29;7.50;;;3.10;;
67896;SDS011;54698;48.428;9.964;2022-08-24T09:49:01;6.40;;;3.25;;
67896;SDS011;54698;48.428;9.964;2022-08-24T09:52:09;7.45;;;3.28;;
67896;SDS011;54698;48.428;9.964;2022-08-24T09:55:14;6.35;;;2.33;;
67896;SDS011;54698;48.428;9.964;2022-08-24T09:58:30;6.35;;;2.92;;
67896;SDS011;54698;48.428;9.964;2022-08-24T10:01:09;4.57;;;2.15;;
67896;SDS011;54698;48.428;9.964;2022-08-24T10:03:47;9.15;;;2.83;;
67896;SDS011;54698;48.428;9.964;2022-08-24T10:06:31;5.90;;;2.60;;
67896;SDS011;54698;48.428;9.964;2022-08-24T10:09:18;6.10;;;2.35;;
67896;SDS011;54698;48.428;9.964;2022-08-24T10:12:04;9.93;;;2.45;;
67896;SDS011;54698;48.428;9.964;2022-08-24T10:14:44;5.28;;;2.33;;
67896;SDS011;54698;48.428;9.964;2022-08-24T10:17:19;11.10;;;2.10;;
67896;SDS011;54698;48.428;9.964;2022-08-24T10:20:04;4.57;;;2.05;;
67896;SDS011;54698;48.428;9.964;2022-08-24T10:22:57;5.25;;;1.77;;
67896;SDS011;54698;48.428;9.964;2022-08-24T10:25:36;4.70;;;2.08;;
67896;SDS011;54698;48.428;9.964;2022-08-24T10:28:14;3.40;;;1.55;;
67896;SDS011;54698;48.428;9.964;2022-08-24T10:31:08;6.20;;;1.60;;
67896;SDS011;54698;48.428;9.964;2022-08-24T10:33:37;5.88;;;1.52;;
67896;SDS011;54698;48.428;9.964;2022-08-24T10:36:19;4.53;;;1.42;;
67896;SDS011;54698;48.428;9.964;2022-08-24T10:39:10;6.38;;;1.52;;
67896;SDS011;54698;48.428;9.964;2022-08-24T10:42:04;4.55;;;1.60;;
67896;SDS011;54698;48.428;9.964;2022-08-24T10:44:56;3.13;;;1.27;;
67896;SDS011;54698;48.428;9.964;2022-08-24T10:47:32;3.65;;;1.48;;
67896;SDS011;54698;48.428;9.964;2022-08-24T10:53:01;4.35;;;1.80;;
67896;SDS011;54698;48.428;9.964;2022-08-24T10:55:44;6.03;;;1.90;;
67896;SDS011;54698;48.428;9.964;2022-08-24T10:58:23;4.90;;;1.60;;
67896;SDS011;54698;48.428;9.964;2022-08-24T11:01:14;12.43;;;2.22;;
67896;SDS011;54698;48.428;9.964;2022-08-24T11:03:51;8.40;;;2.50;;
67896;SDS011;54698;48.428;9.964;2022-08-24T11:08:51;5.93;;;2.25;;
67896;SDS011;54698;48.428;9.964;2022-08-24T11:11:24;4.57;;;1.58;;
67896;SDS011;54698;48.428;9.964;2022-08-24T11:13:56;5.97;;;1.77;;
67896;SDS011;54698;48.428;9.964;2022-08-24T11:16:26;4.93;;;1.63;;
67896;SDS011;54698;48.428;9.964;2022-08-24T11:18:56;7.60;;;2.10;;
67896;SDS011;54698;48.428;9.964;2022-08-24T11:21:32;3.95;;;1.73;;
67896;SDS011;54698;48.428;9.964;2022-08-24T11:24:08;6.20;;;1.75;;
67896;SDS011;54698;48.428;9.964;2022-08-24T11:26:46;4.60;;;1.85;;
67896;SDS011;54698;48.428;9.964;2022-08-24T11:29:17;4.43;;;1.77;;
67896;SDS011;54698;48.428;9.964;2022-08-24T11:31:46;6.18;;;2.03;;
67896;SDS011;54698;48.428;9.964;2022-08-24T11:34:16;6.53;;;1.80;;
67896;SDS011;54698;48.428;9.964;2022-08-24T11:36:44;4.20;;;1.88;;
67896;SDS011;54698;48.428;9.964;2022-08-24T11:39:13;3.63;;;1.48;;
67896;SDS011;54698;48.428;9.964;2022-08-24T11:41:48;4.57;;;2.08;;
67896;SDS011;54698;48.428;9.964;2022-08-24T11:44:24;4.35;;;1.90;;
67896;SDS011;54698;48.428;9.964;2022-08-24T11:49:59;4.57;;;1.50;;
67896;SDS011;54698;48.428;9.964;2022-08-24T11:52:35;4.40;;;1.65;;
67896;SDS011;54698;48.428;9.964;2022-08-24T11:55:18;4.93;;;1.80;;
67896;SDS011;54698;48.428;9.964;2022-08-24T11:57:55;4.75;;;1.98;;
67896;SDS011;54698;48.428;9.964;2022-08-24T12:00:32;3.53;;;1.48;;
67896;SDS011;54698;48.428;9.964;2022-08-24T12:03:12;4.65;;;1.52;;
67896;SDS011;54698;48.428;9.964;2022-08-24T12:05:56;3.95;;;1.48;;
67896;SDS011;54698;48.428;9.964;2022-08-24T12:08:28;4.60;;;1.60;;
67896;SDS011;54698;48.428;9.964;2022-08-24T12:11:06;5.97;;;1.77;;
67896;SDS011;54698;48.428;9.964;2022-08-24T12:13:42;3.88;;;1.55;;
67896;SDS011;54698;48.428;9.964;2022-08-24T12:16:19;3.95;;;1.60;;
67896;SDS011;54698;48.428;9.964;2022-08-24T12:18:54;3.78;;;1.67;;
67896;SDS011;54698;48.428;9.964;2022-08-24T12:21:29;4.90;;;1.60;;
67896;SDS011;54698;48.428;9.964;2022-08-24T12:23:57;4.63;;;1.88;;
67896;SDS011;54698;48.428;9.964;2022-08-24T12:26:28;5.03;;;1.65;;
67896;SDS011;54698;48.428;9.964;2022-08-24T12:29:00;9.38;;;1.80;;
67896;SDS011;54698;48.428;9.964;2022-08-24T12:34:03;6.40;;;1.60;;
67896;SDS011;54698;48.428;9.964;2022-08-24T12:36:37;4.75;;;1.63;;
67896;SDS011;54698;48.428;9.964;2022-08-24T12:39:11;7.28;;;2.00;;
67896;SDS011;54698;48.428;9.964;2022-08-24T12:41:46;6.03;;;2.05;;
67896;SDS011;54698;48.428;9.964;2022-08-24T12:44:21;7.00;;;2.55;;
67896;SDS011;54698;48.428;9.964;2022-08-24T12:46:57;6.35;;;1.90;;
67896;SDS011;54698;48.428;9.964;2022-08-24T12:49:24;7.53;;;1.90;;
67896;SDS011;54698;48.428;9.964;2022-08-24T12:52:01;9.45;;;1.52;;
67896;SDS011;54698;48.428;9.964;2022-08-24T12:57:49;7.80;;;2.28;;
67896;SDS011;54698;48.428;9.964;2022-08-24T13:00:28;3.90;;;1.42;;
67896;SDS011;54698;48.428;9.964;2022-08-24T13:03:02;2.92;;;1.30;;
67896;SDS011;54698;48.428;9.964;2022-08-24T13:05:38;6.13;;;1.42;;
67896;SDS011;54698;48.428;9.964;2022-08-24T13:08:08;4.28;;;1.70;;
67896;SDS011;54698;48.428;9.964;2022-08-24T13:10:38;3.90;;;1.55;;
67896;SDS011;54698;48.428;9.964;2022-08-24T13:13:09;4.90;;;1.23;;
67896;SDS011;54698;48.428;9.964;2022-08-24T13:15:54;5.07;;;2.10;;
67896;SDS011;54698;48.428;9.964;2022-08-24T13:18:44;5.20;;;1.47;;
67896;SDS011;54698;48.428;9.964;2022-08-24T13:21:43;5.35;;;1.42;;
67896;SDS011;54698;48.428;9.964;2022-08-24T13:27:47;4.05;;;1.63;;
67896;SDS011;54698;48.428;9.964;2022-08-24T13:33:42;4.22;;;1.35;;
67896;SDS011;54698;48.428;9.964;2022-08-24T13:39:45;3.80;;;1.20;;
67896;SDS011;54698;48.428;9.964;2022-08-24T13:42:27;2.92;;;1.10;;
67896;SDS011;54698;48.428;9.964;2022-08-24T13:45:14;3.33;;;1.25;;
67896;SDS011;54698;48.428;9.964;2022-08-24T13:47:48;3.17;;;1.25;;
67896;SDS011;54698;48.428;9.964;2022-08-24T13:50:31;3.60;;;1.20;;
67896;SDS011;54698;48.428;9.964;2022-08-24T13:53:12;4.00;;;1.17;;
67896;SDS011;54698;48.428;9.964;2022-08-24T13:56:18;2.45;;;0.98;;
67896;SDS011;54698;48.428;9.964;2022-08-24T13:58:58;3.47;;;1.33;;
67896;SDS011;54698;48.428;9.964;2022-08-24T14:01:33;2.58;;;1.00;;
67896;SDS011;54698;48.428;9.964;2022-08-24T14:04:08;3.30;;;1.25;;
67896;SDS011;54698;48.428;9.964;2022-08-24T14:06:54;4.70;;;1.20;;
67896;SDS011;54698;48.428;9.964;2022-08-24T14:09:30;2.67;;;1.13;;
67896;SDS011;54698;48.428;9.964;2022-08-24T14:12:10;3.50;;;1.00;;
67896;SDS011;54698;48.428;9.964;2022-08-24T14:17:29;6.65;;;1.10;;
67896;SDS011;54698;48.428;9.964;2022-08-24T14:20:09;3.15;;;1.10;;
67896;SDS011;54698;48.428;9.964;2022-08-24T14:22:50;3.38;;;1.33;;
67896;SDS011;54698;48.428;9.964;2022-08-24T14:25:27;2.85;;;0.95;;
67896;SDS011;54698;48.428;9.964;2022-08-24T14:33:46;3.20;;;1.10;;
67896;SDS011;54698;48.428;9.964;2022-08-24T14:36:23;3.75;;;1.30;;
67896;SDS011;54698;48.428;9.964;2022-08-24T14:39:10;2.72;;;1.23;;
67896;SDS011;54698;48.428;9.964;2022-08-24T14:41:49;3.42;;;1.17;;
67896;SDS011;54698;48.428;9.964;2022-08-24T14:44:24;3.38;;;1.25;;
67896;SDS011;54698;48.428;9.964;2022-08-24T14:47:25;3.97;;;1.00;;
67896;SDS011;54698;48.428;9.964;2022-08-24T14:52:38;4.75;;;1.02;;
67896;SDS011;54698;48.428;9.964;2022-08-24T14:55:24;4.28;;;1.13;;
67896;SDS011;54698;48.428;9.964;2022-08-24T15:00:54;2.42;;;1.00;;
67896;SDS011;54698;48.428;9.964;2022-08-24T15:03:56;5.95;;;1.30;;
67896;SDS011;54698;48.428;9.964;2022-08-24T15:06:36;4.10;;;1.30;;
67896;SDS011;54698;48.428;9.964;2022-08-24T15:09:17;3.35;;;0.95;;
67896;SDS011;54698;48.428;9.964;2022-08-24T15:11:51;4.20;;;1.10;;
67896;SDS011;54698;48.428;9.964;2022-08-24T15:14:25;2.97;;;1.10;;
67896;SDS011;54698;48.428;9.964;2022-08-24T15:17:01;4.38;;;1.50;;
67896;SDS011;54698;48.428;9.964;2022-08-24T15:19:31;5.53;;;1.30;;
67896;SDS011;54698;48.428;9.964;2022-08-24T15:22:12;2.88;;;1.15;;
67896;SDS011;54698;48.428;9.964;2022-08-24T15:24:49;4.07;;;1.52;;
67896;SDS011;54698;48.428;9.964;2022-08-24T15:27:24;2.28;;;0.90;;
67896;SDS011;54698;48.428;9.964;2022-08-24T15:30:03;3.42;;;1.10;;
67896;SDS011;54698;48.428;9.964;2022-08-24T15:32:40;3.38;;;1.30;;
67896;SDS011;54698;48.428;9.964;2022-08-24T15:35:21;4.13;;;1.25;;
67896;SDS011;54698;48.428;9.964;2022-08-24T15:37:50;2.78;;;1.00;;
67896;SDS011;54698;48.428;9.964;2022-08-24T15:40:20;4.97;;;1.20;;
67896;SDS011;54698;48.428;9.964;2022-08-24T15:42:50;3.42;;;1.08;;
67896;SDS011;54698;48.428;9.964;2022-08-24T15:45:17;4.40;;;1.40;;
67896;SDS011;54698;48.428;9.964;2022-08-24T15:47:44;4.10;;;0.98;;
67896;SDS011;54698;48.428;9.964;2022-08-24T15:50:18;3.08;;;1.30;;
67896;SDS011;54698;48.428;9.964;2022-08-24T15:52:49;3.42;;;1.10;;
67896;SDS011;54698;48.428;9.964;2022-08-24T15:55:27;9.70;;;1.65;;
67896;SDS011;54698;48.428;9.964;2022-08-24T15:58:22;2.67;;;0.90;;
67896;SDS011;54698;48.428;9.964;2022-08-24T16:00:58;5.05;;;1.13;;